createdAt,value
2022-11-07T00:02:28.741Z,7.95
2022-11-07T00:05:01.255Z,8.09
2022-11-07T00:07:34.563Z,8.05
2022-11-07T00:10:07.474Z,8.07
2022-11-07T00:12:40.314Z,8.00
2022-11-07T00:15:15.192Z,8.05
2022-11-07T00:17:47.616Z,8.10
2022-11-07T00:20:20.023Z,8.08
2022-11-07T00:22:52.071Z,8.13
2022-11-07T00:25:24.298Z,8.18
2022-11-07T00:27:57.382Z,8.20
2022-11-07T00:30:29.714Z,8.24
2022-11-07T00:33:01.911Z,8.25
2022-11-07T00:35:34.495Z,8.24
2022-11-07T00:38:06.766Z,8.24
2022-11-07T00:40:39.163Z,8.25
2022-11-07T00:43:12.720Z,8.26
2022-11-07T00:45:44.549Z,8.30
2022-11-07T00:48:16.720Z,8.29
2022-11-07T00:50:50.623Z,8.28
2022-11-07T00:53:22.875Z,8.31
2022-11-07T00:55:54.951Z,8.24
2022-11-07T00:58:27.406Z,8.22
2022-11-07T01:00:59.876Z,8.27
2022-11-07T01:03:49.622Z,8.28
2022-11-07T01:06:23.718Z,8.23
2022-11-07T01:08:57.828Z,8.23
2022-11-07T01:11:31.352Z,8.26
2022-11-07T01:14:05.574Z,8.21
2022-11-07T01:16:39.141Z,8.27
2022-11-07T01:19:12.051Z,8.27
2022-11-07T01:21:45.031Z,8.24
2022-11-07T01:24:18.211Z,8.24
2022-11-07T01:26:51.809Z,8.23
2022-11-07T01:29:25.312Z,8.26
2022-11-07T01:31:57.806Z,8.30
2022-11-07T01:34:30.077Z,8.33
2022-11-07T01:37:03.678Z,8.33
2022-11-07T01:39:38.492Z,8.33
2022-11-07T01:42:16.049Z,8.33
2022-11-07T01:44:59.946Z,8.31
2022-11-07T01:47:36.268Z,8.29
2022-11-07T01:50:12.556Z,8.27
2022-11-07T01:52:50.541Z,8.26
2022-11-07T01:55:29.245Z,8.25
2022-11-07T01:58:10.204Z,8.21
2022-11-07T02:00:43.046Z,8.24
2022-11-07T02:03:19.795Z,8.24
2022-11-07T02:05:57.619Z,8.23
2022-11-07T02:08:33.951Z,8.24
2022-11-07T02:11:10.035Z,8.25
2022-11-07T02:13:42.976Z,8.25
2022-11-07T02:16:16.313Z,8.23
2022-11-07T02:18:49.273Z,8.21
2022-11-07T02:21:41.249Z,8.21
2022-11-07T02:24:25.963Z,8.23
2022-11-07T02:26:59.884Z,8.22
2022-11-07T02:29:34.522Z,8.20
2022-11-07T02:32:08.876Z,8.25
2022-11-07T02:34:42.309Z,8.26
2022-11-07T02:37:25.492Z,8.26
2022-11-07T02:39:58.463Z,8.26
2022-11-07T02:42:43.555Z,8.27
2022-11-07T02:45:20.044Z,8.28
2022-11-07T02:47:52.316Z,8.30
2022-11-07T02:50:24.963Z,8.29
2022-11-07T02:52:57.403Z,8.27
2022-11-07T02:55:29.540Z,8.24
2022-11-07T02:58:02.134Z,8.22
2022-11-07T03:00:34.935Z,8.19
2022-11-07T03:03:06.968Z,8.18
2022-11-07T03:05:41.042Z,8.16
2022-11-07T03:08:13.290Z,8.15
2022-11-07T03:10:45.562Z,8.12
2022-11-07T03:13:17.878Z,8.13
2022-11-07T03:15:51.609Z,8.13
2022-11-07T03:18:24.270Z,8.12
2022-11-07T03:20:56.555Z,8.12
2022-11-07T03:23:28.647Z,8.12
2022-11-07T03:26:00.969Z,8.12
2022-11-07T03:28:36.097Z,8.13
2022-11-07T03:31:09.556Z,8.14
2022-11-07T03:33:42.306Z,8.14
2022-11-07T03:36:14.658Z,8.15
2022-11-07T03:38:47.534Z,8.16
2022-11-07T03:41:20.059Z,8.17
2022-11-07T03:43:52.224Z,8.15
2022-11-07T03:46:24.772Z,8.15
2022-11-07T03:48:57.096Z,8.15
2022-11-07T03:51:29.573Z,8.16
2022-11-07T03:54:01.818Z,8.14
2022-11-07T03:56:34.277Z,8.13
2022-11-07T03:59:06.315Z,8.14
2022-11-07T04:01:39.031Z,8.14
2022-11-07T04:04:13.369Z,8.12
2022-11-07T04:06:45.419Z,8.15
2022-11-07T04:09:17.935Z,8.13
2022-11-07T04:12:07.705Z,8.03
2022-11-07T04:14:57.480Z,8.18
2022-11-07T04:17:32.362Z,8.19
2022-11-07T04:20:11.171Z,8.20
2022-11-07T04:22:43.877Z,8.25
2022-11-07T04:25:17.199Z,8.23
2022-11-07T04:27:49.461Z,8.18
2022-11-07T04:30:25.853Z,8.25
2022-11-07T04:33:00.348Z,8.32
2022-11-07T04:35:34.689Z,8.39
2022-11-07T04:38:10.760Z,8.44
2022-11-07T04:40:43.642Z,8.47
2022-11-07T04:43:16.036Z,8.50
2022-11-07T04:45:48.485Z,8.53
2022-11-07T04:48:20.651Z,8.53
2022-11-07T04:50:53.515Z,8.56
2022-11-07T04:53:26.758Z,8.54
2022-11-07T04:55:59.689Z,8.62
2022-11-07T04:58:31.752Z,8.60
2022-11-07T05:01:03.906Z,8.63
2022-11-07T05:03:41.299Z,8.62
2022-11-07T05:06:16.341Z,8.65
2022-11-07T05:08:48.765Z,8.67
2022-11-07T05:11:22.709Z,8.73
2022-11-07T05:13:54.829Z,8.75
2022-11-07T05:16:27.710Z,8.80
2022-11-07T05:18:59.842Z,8.80
2022-11-07T05:21:32.074Z,8.81
2022-11-07T05:24:04.522Z,8.76
2022-11-07T05:26:36.707Z,8.72
2022-11-07T05:29:11.642Z,8.71
2022-11-07T05:31:43.818Z,8.77
2022-11-07T05:34:16.490Z,8.92
2022-11-07T05:36:48.504Z,9.03
2022-11-07T05:39:20.653Z,9.11
2022-11-07T05:41:53.077Z,9.16
2022-11-07T05:44:25.344Z,9.07
2022-11-07T05:46:59.006Z,9.09
2022-11-07T05:49:31.282Z,9.18
2022-11-07T05:52:03.642Z,9.00
2022-11-07T05:54:37.056Z,8.89
2022-11-07T05:57:09.496Z,8.88
2022-11-07T05:59:41.954Z,9.00
2022-11-07T06:02:14.809Z,9.07
2022-11-07T06:04:46.850Z,8.93
2022-11-07T06:07:19.576Z,9.05
2022-11-07T06:09:52.210Z,9.03
2022-11-07T06:12:24.639Z,9.08
2022-11-07T06:14:57.054Z,9.03
2022-11-07T06:17:29.372Z,9.13
2022-11-07T06:20:01.370Z,9.14
2022-11-07T06:22:34.159Z,9.06
2022-11-07T06:25:08.410Z,9.08
2022-11-07T06:27:43.705Z,9.15
2022-11-07T06:30:16.299Z,9.16
2022-11-07T06:32:48.370Z,9.07
2022-11-07T06:35:20.452Z,9.11
2022-11-07T06:37:53.757Z,9.17
2022-11-07T06:40:26.216Z,9.14
2022-11-07T06:43:06.331Z,9.22
2022-11-07T06:45:39.188Z,9.01
2022-11-07T06:48:13.418Z,9.12
2022-11-07T06:50:45.459Z,9.14
2022-11-07T06:53:18.048Z,9.10
2022-11-07T06:55:50.703Z,9.16
2022-11-07T06:58:23.658Z,9.21
2022-11-07T07:00:59.156Z,9.08
2022-11-07T07:03:31.249Z,9.19
2022-11-07T07:06:08.183Z,9.07
2022-11-07T07:08:40.760Z,9.08
2022-11-07T07:11:15.609Z,9.13
2022-11-07T07:13:47.783Z,9.16
2022-11-07T07:16:19.980Z,9.07
2022-11-07T07:18:52.136Z,9.08
2022-11-07T07:21:24.408Z,9.10
2022-11-07T07:23:56.713Z,9.06
2022-11-07T07:26:29.546Z,9.18
2022-11-07T07:29:01.897Z,9.24
2022-11-07T07:31:34.520Z,9.24
2022-11-07T07:34:06.785Z,9.34
2022-11-07T07:36:39.128Z,9.42
2022-11-07T07:39:11.640Z,9.61
2022-11-07T07:41:43.688Z,9.63
2022-11-07T07:44:24.111Z,9.70
2022-11-07T07:46:56.185Z,9.38
2022-11-07T07:49:29.161Z,9.47
2022-11-07T07:52:01.112Z,9.58
2022-11-07T07:54:33.311Z,9.70
2022-11-07T07:57:06.016Z,9.72
2022-11-07T07:59:38.122Z,9.85
2022-11-07T08:02:13.017Z,9.96
2022-11-07T08:04:45.726Z,9.93
2022-11-07T08:07:17.810Z,9.84
2022-11-07T08:09:50.016Z,10.00
2022-11-07T08:12:22.143Z,10.08
2022-11-07T08:14:54.177Z,9.98
2022-11-07T08:17:26.154Z,9.91
2022-11-07T08:19:58.275Z,9.86
2022-11-07T08:22:30.685Z,10.00
2022-11-07T08:25:02.909Z,10.19
2022-11-07T08:27:35.653Z,10.14
2022-11-07T08:30:16.636Z,10.17
2022-11-07T08:32:50.169Z,10.46
2022-11-07T08:35:22.636Z,10.50
2022-11-07T08:37:56.223Z,10.42
2022-11-07T08:40:28.726Z,10.48
2022-11-07T08:43:03.308Z,10.37
2022-11-07T08:45:35.592Z,10.35
2022-11-07T08:48:08.500Z,10.42
2022-11-07T08:50:40.627Z,10.47
2022-11-07T08:53:12.844Z,10.50
2022-11-07T08:55:45.127Z,10.37
2022-11-07T08:58:17.768Z,10.41
2022-11-07T09:00:49.970Z,10.48
2022-11-07T09:06:14.158Z,10.74
2022-11-07T09:08:46.199Z,10.77
2022-11-07T09:11:19.314Z,10.78
2022-11-07T09:13:51.560Z,10.85
2022-11-07T09:16:24.555Z,10.97
2022-11-07T09:18:57.122Z,11.02
2022-11-07T09:21:29.219Z,10.79
2022-11-07T09:24:01.284Z,10.77
2022-11-07T09:26:34.072Z,10.82
2022-11-07T09:29:06.532Z,10.92
2022-11-07T09:31:38.915Z,11.06
2022-11-07T09:34:10.919Z,10.89
2022-11-07T09:36:42.955Z,11.10
2022-11-07T09:39:14.997Z,11.13
2022-11-07T09:41:57.165Z,11.16
2022-11-07T09:44:54.417Z,11.13
2022-11-07T09:47:35.962Z,11.11
2022-11-07T09:50:15.710Z,11.07
2022-11-07T09:52:55.100Z,11.20
2022-11-07T09:55:33.475Z,11.14
2022-11-07T09:58:12.055Z,11.13
2022-11-07T10:00:44.791Z,11.29
2022-11-07T10:03:17.314Z,11.34
2022-11-07T10:05:55.872Z,11.28
2022-11-07T10:08:36.415Z,11.30
2022-11-07T10:11:14.136Z,11.49
2022-11-07T10:13:58.460Z,11.56
2022-11-07T10:16:43.640Z,11.33
2022-11-07T10:19:21.396Z,11.32
2022-11-07T10:22:00.888Z,11.39
2022-11-07T10:24:47.279Z,11.46
2022-11-07T10:27:21.778Z,11.32
2022-11-07T10:29:56.454Z,11.40
2022-11-07T10:32:30.740Z,11.56
2022-11-07T10:35:17.241Z,11.57
2022-11-07T10:37:57.338Z,11.65
2022-11-07T10:40:38.582Z,11.72
2022-11-07T10:43:19.189Z,11.61
2022-11-07T10:45:53.467Z,11.59
2022-11-07T10:48:29.554Z,11.49
2022-11-07T10:51:01.984Z,11.63
2022-11-07T10:53:43.930Z,11.55
2022-11-07T10:56:20.035Z,11.64
2022-11-07T10:58:54.392Z,11.67
2022-11-07T11:01:30.415Z,11.77
2022-11-07T11:04:03.289Z,11.72
2022-11-07T11:06:35.668Z,11.57
2022-11-07T11:09:20.000Z,11.46
2022-11-07T11:11:56.061Z,11.53
2022-11-07T11:14:28.480Z,11.70
2022-11-07T11:17:00.673Z,11.70
2022-11-07T11:19:41.254Z,11.89
2022-11-07T11:22:20.428Z,11.94
2022-11-07T11:25:15.326Z,12.04
2022-11-07T11:27:50.326Z,12.20
2022-11-07T11:30:23.415Z,12.30
2022-11-07T11:33:04.442Z,12.19
2022-11-07T11:35:42.567Z,12.19
2022-11-07T11:38:18.938Z,12.08
2022-11-07T11:41:03.312Z,12.33
2022-11-07T11:43:46.714Z,12.46
2022-11-07T11:46:27.932Z,12.55
2022-11-07T11:49:02.842Z,12.68
2022-11-07T11:51:41.999Z,12.78
2022-11-07T11:54:16.603Z,12.92
2022-11-07T11:56:55.007Z,13.12
2022-11-07T11:59:49.234Z,13.15
2022-11-07T12:02:40.029Z,13.27
2022-11-07T12:05:25.111Z,13.44
2022-11-07T12:08:09.533Z,13.41
2022-11-07T12:10:54.007Z,13.33
2022-11-07T12:13:37.900Z,13.28
2022-11-07T12:16:21.226Z,13.20
2022-11-07T12:19:04.608Z,13.01
2022-11-07T12:21:45.910Z,12.97
2022-11-07T12:24:29.275Z,12.99
2022-11-07T12:27:10.468Z,12.93
2022-11-07T12:29:59.858Z,12.75
2022-11-07T12:32:42.007Z,12.75
2022-11-07T12:35:33.605Z,12.80
2022-11-07T12:38:40.049Z,12.90
2022-11-07T12:41:20.442Z,12.89
2022-11-07T12:44:05.948Z,12.90
2022-11-07T12:46:49.039Z,12.98
2022-11-07T12:52:37.431Z,13.01
2022-11-07T12:55:21.149Z,12.98
2022-11-07T12:57:57.318Z,12.99
2022-11-07T13:00:31.212Z,12.87
2022-11-07T13:03:24.225Z,12.76
2022-11-07T13:06:07.108Z,12.94
2022-11-07T13:08:47.068Z,12.90
2022-11-07T13:11:29.061Z,12.85
2022-11-07T13:14:24.045Z,12.83
2022-11-07T13:17:20.293Z,12.88
2022-11-07T13:20:04.480Z,12.71
2022-11-07T13:22:40.199Z,12.74
2022-11-07T13:25:29.105Z,12.79
2022-11-07T13:28:25.521Z,12.85
2022-11-07T13:31:05.151Z,12.70
2022-11-07T13:33:43.343Z,12.74
2022-11-07T13:36:27.470Z,12.74
2022-11-07T13:39:01.980Z,12.71
2022-11-07T13:41:36.752Z,12.70
2022-11-07T13:44:19.547Z,12.70
2022-11-07T13:46:57.303Z,12.74
2022-11-07T13:49:39.963Z,12.65
2022-11-07T13:52:26.220Z,12.73
2022-11-07T13:55:05.391Z,12.69
2022-11-07T13:57:45.313Z,12.63
2022-11-07T14:00:25.741Z,12.79
2022-11-07T14:03:01.195Z,12.82
2022-11-07T14:05:38.924Z,12.84
2022-11-07T14:08:24.854Z,12.65
2022-11-07T14:10:58.921Z,12.70
2022-11-07T14:13:41.225Z,12.76
2022-11-07T14:16:27.239Z,12.73
2022-11-07T14:19:03.370Z,12.79
2022-11-07T14:21:38.255Z,12.76
2022-11-07T14:24:25.367Z,12.73
2022-11-07T14:27:09.787Z,12.74
2022-11-07T14:29:52.811Z,12.77
2022-11-07T14:32:31.983Z,12.86
2022-11-07T14:35:11.445Z,12.93
2022-11-07T14:37:43.663Z,12.96
2022-11-07T14:40:18.475Z,13.01
2022-11-07T14:42:52.833Z,12.97
2022-11-07T14:46:05.564Z,12.94
2022-11-07T14:48:21.282Z,12.89
2022-11-07T14:50:54.427Z,12.89
2022-11-07T14:53:33.964Z,12.84
2022-11-07T14:56:14.353Z,12.83
2022-11-07T14:58:47.019Z,12.67
2022-11-07T15:01:29.090Z,12.71
2022-11-07T15:04:05.549Z,12.75
2022-11-07T15:06:45.508Z,12.68
2022-11-07T15:09:18.612Z,12.51
2022-11-07T15:12:00.580Z,12.62
2022-11-07T15:14:39.848Z,12.53
2022-11-07T15:17:24.860Z,12.55
2022-11-07T15:20:03.774Z,12.49
2022-11-07T15:22:41.532Z,12.44
2022-11-07T15:25:29.581Z,12.43
2022-11-07T15:28:17.464Z,12.33
2022-11-07T15:30:51.864Z,12.33
2022-11-07T15:33:25.873Z,12.29
2022-11-07T15:36:03.094Z,12.21
2022-11-07T15:38:35.595Z,12.15
2022-11-07T15:41:09.219Z,12.05
2022-11-07T15:43:43.514Z,12.04
2022-11-07T15:46:27.239Z,12.07
2022-11-07T15:49:00.469Z,11.99
2022-11-07T15:51:32.900Z,12.07
2022-11-07T15:54:05.168Z,12.10
2022-11-07T15:56:37.678Z,12.10
2022-11-07T15:59:19.630Z,12.04
2022-11-07T16:01:53.059Z,11.94
2022-11-07T16:04:26.860Z,11.97
2022-11-07T16:06:59.165Z,11.99
2022-11-07T16:09:35.612Z,11.93
2022-11-07T16:12:10.296Z,11.91
2022-11-07T16:14:44.543Z,11.94
2022-11-07T16:17:19.959Z,11.90
2022-11-07T16:19:53.097Z,11.74
2022-11-07T16:22:29.597Z,11.65
2022-11-07T16:25:08.816Z,11.64
2022-11-07T16:27:51.251Z,11.71
2022-11-07T16:30:26.985Z,11.56
2022-11-07T16:33:01.221Z,11.56
2022-11-07T16:35:35.966Z,11.54
2022-11-07T16:38:16.868Z,11.62
2022-11-07T16:40:49.889Z,11.60
2022-11-07T16:43:24.676Z,11.57
2022-11-07T16:45:59.272Z,11.57
2022-11-07T16:48:31.869Z,11.44
2022-11-07T16:51:05.460Z,11.53
2022-11-07T16:53:40.922Z,11.44
2022-11-07T16:56:25.540Z,11.57
2022-11-07T16:58:59.804Z,11.60
2022-11-07T17:01:32.567Z,11.55
2022-11-07T17:04:07.671Z,11.51
2022-11-07T17:06:43.947Z,11.55
2022-11-07T17:09:20.384Z,11.60
2022-11-07T17:11:52.947Z,11.59
2022-11-07T17:14:25.708Z,11.53
2022-11-07T17:17:01.879Z,11.50
2022-11-07T17:19:35.402Z,11.60
2022-11-07T17:22:11.378Z,11.57
2022-11-07T17:24:46.554Z,11.60
2022-11-07T17:27:29.652Z,11.52
2022-11-07T17:30:08.199Z,11.54
2022-11-07T17:32:42.064Z,11.61
2022-11-07T17:38:07.894Z,11.53
2022-11-07T17:40:41.383Z,11.30
2022-11-07T17:43:14.254Z,11.49
2022-11-07T17:45:48.627Z,11.53
2022-11-07T17:48:23.009Z,11.56
2022-11-07T17:50:55.473Z,11.49
2022-11-07T17:53:32.685Z,11.50
2022-11-07T17:56:07.656Z,11.56
2022-11-07T17:58:40.552Z,11.59
2022-11-07T18:01:18.188Z,11.62
2022-11-07T18:03:52.281Z,11.57
2022-11-07T18:06:26.743Z,11.74
2022-11-07T18:09:00.819Z,11.77
2022-11-07T18:11:36.615Z,11.79
2022-11-07T18:14:13.457Z,11.66
2022-11-07T18:16:45.966Z,11.72
2022-11-07T18:19:19.648Z,11.71
2022-11-07T18:21:54.961Z,11.72
2022-11-07T18:24:28.600Z,11.72
2022-11-07T18:27:01.064Z,11.68
2022-11-07T18:29:33.656Z,11.68
2022-11-07T18:32:10.857Z,11.72
2022-11-07T18:34:43.585Z,11.67
2022-11-07T18:37:15.682Z,11.72
2022-11-07T18:39:47.985Z,11.81
2022-11-07T18:42:20.378Z,11.83
2022-11-07T18:44:54.145Z,11.84
2022-11-07T18:47:26.430Z,11.83
2022-11-07T18:50:01.359Z,11.72
2022-11-07T18:52:34.763Z,11.74
2022-11-07T18:55:11.683Z,11.78
2022-11-07T18:57:43.776Z,11.77
2022-11-07T19:00:23.396Z,11.67
2022-11-07T19:02:55.854Z,11.79
2022-11-07T19:05:29.344Z,11.79
2022-11-07T19:08:01.901Z,11.79
2022-11-07T19:10:36.039Z,11.91
2022-11-07T19:13:08.672Z,11.91
2022-11-07T19:15:42.875Z,11.82
2022-11-07T19:18:15.903Z,11.94
2022-11-07T19:20:48.832Z,11.95
2022-11-07T19:23:22.231Z,12.01
2022-11-07T19:25:55.568Z,11.93
2022-11-07T19:28:27.730Z,11.95
2022-11-07T19:31:03.001Z,12.06
2022-11-07T19:33:35.345Z,11.97
2022-11-07T19:36:13.370Z,11.87
2022-11-07T19:38:46.786Z,12.08
2022-11-07T19:41:20.057Z,12.09
2022-11-07T19:43:52.662Z,11.96
2022-11-07T19:46:27.073Z,11.93
2022-11-07T19:49:00.985Z,11.92
2022-11-07T19:51:33.977Z,12.01
2022-11-07T19:54:09.812Z,11.91
2022-11-07T19:56:49.876Z,11.94
2022-11-07T19:59:29.836Z,11.88
2022-11-07T20:05:30.788Z,11.86
2022-11-07T20:08:48.034Z,11.96
2022-11-07T20:11:55.184Z,11.92
2022-11-07T20:14:53.457Z,11.85
2022-11-07T20:17:26.914Z,11.82
2022-11-07T20:20:07.243Z,11.91
2022-11-07T20:22:49.774Z,12.00
2022-11-07T20:25:24.881Z,12.00
2022-11-07T20:28:00.577Z,11.94
2022-11-07T20:30:44.549Z,12.05
2022-11-07T20:33:20.740Z,11.97
2022-11-07T20:36:09.259Z,12.05
2022-11-07T20:38:43.242Z,12.07
2022-11-07T20:41:22.133Z,12.05
2022-11-07T20:44:01.475Z,12.01
2022-11-07T20:46:42.326Z,11.99
2022-11-07T20:49:22.401Z,11.90
2022-11-07T20:52:27.235Z,11.74
2022-11-07T20:55:03.074Z,11.79
2022-11-07T20:58:13.823Z,11.77
2022-11-07T21:00:54.578Z,11.78
2022-11-07T21:03:37.032Z,11.78
2022-11-07T21:06:16.699Z,11.76
2022-11-07T21:09:20.694Z,11.92
2022-11-07T21:12:17.855Z,11.84
2022-11-07T21:14:50.592Z,11.87
2022-11-07T21:17:25.682Z,11.84
2022-11-07T21:19:58.888Z,11.87
2022-11-07T21:22:32.552Z,11.90
2022-11-07T21:25:09.996Z,11.91
2022-11-07T21:27:44.037Z,11.87
2022-11-07T21:30:17.360Z,11.89
2022-11-07T21:32:49.504Z,11.84
2022-11-07T21:35:24.373Z,11.81
2022-11-07T21:37:57.532Z,11.95
2022-11-07T21:40:31.068Z,12.01
2022-11-07T21:43:04.444Z,12.03
2022-11-07T21:45:39.228Z,11.96
2022-11-07T21:48:13.051Z,11.93
2022-11-07T21:50:45.720Z,11.91
2022-11-07T21:53:19.335Z,11.88
2022-11-07T21:55:52.273Z,12.00
2022-11-07T21:58:25.053Z,12.12
2022-11-07T22:01:01.758Z,12.07
2022-11-07T22:04:04.289Z,12.05
2022-11-07T22:06:27.260Z,12.01
2022-11-07T22:08:59.375Z,11.98
2022-11-07T22:11:31.706Z,12.05
2022-11-07T22:14:03.932Z,12.07
2022-11-07T22:16:36.481Z,12.10
2022-11-07T22:19:12.448Z,12.01
2022-11-07T22:21:50.212Z,11.99
2022-11-07T22:24:25.586Z,12.04
2022-11-07T22:27:00.651Z,11.97
2022-11-07T22:29:34.267Z,11.88
2022-11-07T22:32:09.963Z,11.98
2022-11-07T22:34:43.858Z,11.85
2022-11-07T22:37:17.387Z,11.99
2022-11-07T22:39:49.653Z,11.88
2022-11-07T22:42:23.884Z,11.88
2022-11-07T22:44:57.898Z,11.93
2022-11-07T22:47:30.524Z,11.83
2022-11-07T22:50:02.558Z,11.74
2022-11-07T22:52:35.132Z,11.72
2022-11-07T22:55:09.663Z,11.74
2022-11-07T22:57:44.442Z,11.75
2022-11-07T23:00:23.000Z,11.65
2022-11-07T23:02:55.927Z,11.71
2022-11-07T23:05:29.445Z,11.66
2022-11-07T23:08:19.873Z,11.67
2022-11-07T23:11:32.530Z,11.66
2022-11-07T23:14:00.774Z,11.63
2022-11-07T23:16:35.230Z,11.71
2022-11-07T23:19:12.568Z,11.72
2022-11-07T23:21:46.842Z,11.60
2022-11-07T23:24:19.067Z,11.56
2022-11-07T23:26:52.523Z,11.60
2022-11-07T23:29:26.816Z,11.62
2022-11-07T23:31:57.968Z,11.57
2022-11-07T23:34:57.779Z,11.55
2022-11-07T23:37:31.528Z,11.59
2022-11-07T23:40:04.026Z,11.51
2022-11-07T23:42:36.325Z,11.55
2022-11-07T23:45:30.749Z,11.59
2022-11-07T23:48:22.339Z,11.44
2022-11-07T23:51:03.593Z,11.42
2022-11-07T23:53:58.200Z,11.46
2022-11-07T23:56:31.611Z,11.43
2022-11-07T23:59:22.258Z,11.49
